sensor_id;sensor_type;location;lat;lon;timestamp;P1;durP1;ratioP1;P2;durP2;ratioP2
68108;SDS011;54893;49.864;19.084;2022-08-16T00:00:49;10.80;;;5.30;;
68108;SDS011;54893;49.864;19.084;2022-08-16T00:05:49;8.80;;;4.93;;
68108;SDS011;54893;49.864;19.084;2022-08-16T00:10:51;10.57;;;5.47;;
68108;SDS011;54893;49.864;19.084;2022-08-16T00:15:51;11.80;;;6.30;;
68108;SDS011;54893;49.864;19.084;2022-08-16T00:20:51;11.07;;;6.30;;
68108;SDS011;54893;49.864;19.084;2022-08-16T00:25:52;12.63;;;6.60;;
68108;SDS011;54893;49.864;19.084;2022-08-16T00:30:52;12.73;;;6.57;;
68108;SDS011;54893;49.864;19.084;2022-08-16T00:35:52;11.57;;;6.37;;
68108;SDS011;54893;49.864;19.084;2022-08-16T00:40:53;11.63;;;6.30;;
68108;SDS011;54893;49.864;19.084;2022-08-16T00:51:06;12.02;;;6.25;;
68108;SDS011;54893;49.864;19.084;2022-08-16T00:56:09;11.80;;;6.13;;
68108;SDS011;54893;49.864;19.084;2022-08-16T01:01:12;12.57;;;6.53;;
68108;SDS011;54893;49.864;19.084;2022-08-16T01:06:15;11.10;;;6.30;;
68108;SDS011;54893;49.864;19.084;2022-08-16T01:11:18;10.52;;;5.75;;
68108;SDS011;54893;49.864;19.084;2022-08-16T01:16:20;10.77;;;6.15;;
68108;SDS011;54893;49.864;19.084;2022-08-16T01:26:27;13.87;;;7.13;;
68108;SDS011;54893;49.864;19.084;2022-08-16T01:31:29;13.85;;;7.03;;
68108;SDS011;54893;49.864;19.084;2022-08-16T01:36:30;12.63;;;6.90;;
68108;SDS011;54893;49.864;19.084;2022-08-16T01:41:31;13.52;;;6.80;;
68108;SDS011;54893;49.864;19.084;2022-08-16T01:46:33;11.50;;;6.50;;
68108;SDS011;54893;49.864;19.084;2022-08-16T01:51:37;12.68;;;6.82;;
68108;SDS011;54893;49.864;19.084;2022-08-16T01:56:40;14.23;;;7.07;;
68108;SDS011;54893;49.864;19.084;2022-08-16T02:01:40;11.67;;;6.40;;
68108;SDS011;54893;49.864;19.084;2022-08-16T02:06:41;10.87;;;6.30;;
68108;SDS011;54893;49.864;19.084;2022-08-16T02:11:44;11.77;;;6.77;;
68108;SDS011;54893;49.864;19.084;2022-08-16T02:16:46;13.40;;;7.20;;
68108;SDS011;54893;49.864;19.084;2022-08-16T02:21:49;14.23;;;6.97;;
68108;SDS011;54893;49.864;19.084;2022-08-16T02:26:51;12.85;;;6.90;;
68108;SDS011;54893;49.864;19.084;2022-08-16T02:31:51;14.67;;;7.17;;
68108;SDS011;54893;49.864;19.084;2022-08-16T02:36:52;11.50;;;6.63;;
68108;SDS011;54893;49.864;19.084;2022-08-16T02:41:52;13.00;;;6.97;;
68108;SDS011;54893;49.864;19.084;2022-08-16T02:46:52;14.03;;;7.63;;
68108;SDS011;54893;49.864;19.084;2022-08-16T02:51:53;13.93;;;7.10;;
68108;SDS011;54893;49.864;19.084;2022-08-16T02:56:53;11.17;;;6.47;;
68108;SDS011;54893;49.864;19.084;2022-08-16T03:01:54;13.43;;;6.73;;
68108;SDS011;54893;49.864;19.084;2022-08-16T03:06:55;13.50;;;7.38;;
68108;SDS011;54893;49.864;19.084;2022-08-16T03:11:55;14.30;;;7.60;;
68108;SDS011;54893;49.864;19.084;2022-08-16T03:16:56;13.93;;;7.30;;
68108;SDS011;54893;49.864;19.084;2022-08-16T03:21:56;13.77;;;7.63;;
68108;SDS011;54893;49.864;19.084;2022-08-16T03:26:57;15.67;;;8.43;;
68108;SDS011;54893;49.864;19.084;2022-08-16T03:31:59;14.10;;;7.63;;
68108;SDS011;54893;49.864;19.084;2022-08-16T03:37:00;14.90;;;7.97;;
68108;SDS011;54893;49.864;19.084;2022-08-16T03:42:01;13.47;;;7.00;;
68108;SDS011;54893;49.864;19.084;2022-08-16T03:47:01;15.80;;;7.67;;
68108;SDS011;54893;49.864;19.084;2022-08-16T03:52:02;13.73;;;7.50;;
68108;SDS011;54893;49.864;19.084;2022-08-16T03:57:03;13.95;;;7.07;;
68108;SDS011;54893;49.864;19.084;2022-08-16T04:02:04;15.67;;;7.73;;
68108;SDS011;54893;49.864;19.084;2022-08-16T04:07:05;17.30;;;8.20;;
68108;SDS011;54893;49.864;19.084;2022-08-16T04:12:07;13.52;;;7.05;;
68108;SDS011;54893;49.864;19.084;2022-08-16T04:17:09;17.23;;;8.65;;
68108;SDS011;54893;49.864;19.084;2022-08-16T04:22:10;17.90;;;8.93;;
68108;SDS011;54893;49.864;19.084;2022-08-16T04:27:10;15.17;;;7.87;;
68108;SDS011;54893;49.864;19.084;2022-08-16T04:32:11;19.10;;;8.43;;
68108;SDS011;54893;49.864;19.084;2022-08-16T04:37:11;17.57;;;7.80;;
68108;SDS011;54893;49.864;19.084;2022-08-16T04:42:11;17.80;;;7.90;;
68108;SDS011;54893;49.864;19.084;2022-08-16T04:47:12;17.20;;;8.13;;
68108;SDS011;54893;49.864;19.084;2022-08-16T04:52:12;16.90;;;7.80;;
68108;SDS011;54893;49.864;19.084;2022-08-16T04:57:13;15.25;;;7.65;;
68108;SDS011;54893;49.864;19.084;2022-08-16T05:02:13;13.20;;;7.57;;
68108;SDS011;54893;49.864;19.084;2022-08-16T05:07:13;14.87;;;7.20;;
68108;SDS011;54893;49.864;19.084;2022-08-16T05:12:14;15.13;;;7.38;;
68108;SDS011;54893;49.864;19.084;2022-08-16T05:17:14;14.88;;;7.40;;
68108;SDS011;54893;49.864;19.084;2022-08-16T05:22:15;13.70;;;7.60;;
68108;SDS011;54893;49.864;19.084;2022-08-16T05:27:16;14.55;;;7.53;;
68108;SDS011;54893;49.864;19.084;2022-08-16T05:32:16;12.50;;;6.80;;
68108;SDS011;54893;49.864;19.084;2022-08-16T05:37:16;12.93;;;6.75;;
68108;SDS011;54893;49.864;19.084;2022-08-16T05:42:17;16.27;;;7.13;;
68108;SDS011;54893;49.864;19.084;2022-08-16T05:47:17;15.00;;;7.05;;
68108;SDS011;54893;49.864;19.084;2022-08-16T05:52:18;14.90;;;7.22;;
68108;SDS011;54893;49.864;19.084;2022-08-16T05:57:18;11.73;;;6.70;;
68108;SDS011;54893;49.864;19.084;2022-08-16T06:02:19;11.65;;;6.28;;
68108;SDS011;54893;49.864;19.084;2022-08-16T06:07:23;14.90;;;6.90;;
68108;SDS011;54893;49.864;19.084;2022-08-16T06:12:24;11.87;;;7.30;;
68108;SDS011;54893;49.864;19.084;2022-08-16T06:17:25;13.15;;;7.20;;
68108;SDS011;54893;49.864;19.084;2022-08-16T06:22:26;12.02;;;7.35;;
68108;SDS011;54893;49.864;19.084;2022-08-16T06:27:27;12.47;;;6.77;;
68108;SDS011;54893;49.864;19.084;2022-08-16T06:32:27;10.87;;;6.73;;
68108;SDS011;54893;49.864;19.084;2022-08-16T06:37:27;12.80;;;6.93;;
68108;SDS011;54893;49.864;19.084;2022-08-16T06:42:28;12.10;;;7.53;;
68108;SDS011;54893;49.864;19.084;2022-08-16T06:47:29;11.63;;;6.47;;
68108;SDS011;54893;49.864;19.084;2022-08-16T06:52:29;11.43;;;6.83;;
68108;SDS011;54893;49.864;19.084;2022-08-16T06:57:32;11.50;;;6.60;;
68108;SDS011;54893;49.864;19.084;2022-08-16T07:02:32;12.03;;;6.70;;
68108;SDS011;54893;49.864;19.084;2022-08-16T07:07:32;13.07;;;6.67;;
68108;SDS011;54893;49.864;19.084;2022-08-16T07:12:34;10.93;;;6.38;;
68108;SDS011;54893;49.864;19.084;2022-08-16T07:17:35;11.77;;;6.95;;
68108;SDS011;54893;49.864;19.084;2022-08-16T07:22:35;10.98;;;6.90;;
68108;SDS011;54893;49.864;19.084;2022-08-16T07:27:36;10.93;;;6.97;;
68108;SDS011;54893;49.864;19.084;2022-08-16T07:32:37;11.20;;;7.22;;
68108;SDS011;54893;49.864;19.084;2022-08-16T07:37:37;12.17;;;7.50;;
68108;SDS011;54893;49.864;19.084;2022-08-16T07:42:38;11.80;;;7.67;;
68108;SDS011;54893;49.864;19.084;2022-08-16T07:47:39;12.47;;;8.10;;
68108;SDS011;54893;49.864;19.084;2022-08-16T07:52:42;13.13;;;8.13;;
68108;SDS011;54893;49.864;19.084;2022-08-16T07:57:43;14.05;;;7.88;;
68108;SDS011;54893;49.864;19.084;2022-08-16T08:02:45;14.48;;;7.60;;
68108;SDS011;54893;49.864;19.084;2022-08-16T08:07:46;17.13;;;8.37;;
68108;SDS011;54893;49.864;19.084;2022-08-16T08:12:48;12.30;;;7.93;;
68108;SDS011;54893;49.864;19.084;2022-08-16T08:17:50;12.48;;;8.98;;
68108;SDS011;54893;49.864;19.084;2022-08-16T08:22:51;13.23;;;8.30;;
68108;SDS011;54893;49.864;19.084;2022-08-16T08:27:53;14.43;;;8.18;;
68108;SDS011;54893;49.864;19.084;2022-08-16T08:32:53;15.27;;;9.97;;
68108;SDS011;54893;49.864;19.084;2022-08-16T08:37:54;16.63;;;10.47;;
68108;SDS011;54893;49.864;19.084;2022-08-16T08:42:56;18.53;;;11.03;;
68108;SDS011;54893;49.864;19.084;2022-08-16T08:47:57;15.73;;;9.00;;
68108;SDS011;54893;49.864;19.084;2022-08-16T08:52:57;14.17;;;9.20;;
68108;SDS011;54893;49.864;19.084;2022-08-16T08:58:00;17.27;;;9.30;;
68108;SDS011;54893;49.864;19.084;2022-08-16T09:03:00;13.43;;;8.30;;
68108;SDS011;54893;49.864;19.084;2022-08-16T09:08:00;14.23;;;7.83;;
68108;SDS011;54893;49.864;19.084;2022-08-16T09:13:01;14.05;;;8.68;;
68108;SDS011;54893;49.864;19.084;2022-08-16T09:18:05;12.07;;;8.53;;
68108;SDS011;54893;49.864;19.084;2022-08-16T09:23:05;14.50;;;8.55;;
68108;SDS011;54893;49.864;19.084;2022-08-16T09:28:06;13.30;;;8.50;;
68108;SDS011;54893;49.864;19.084;2022-08-16T09:33:06;16.80;;;8.93;;
68108;SDS011;54893;49.864;19.084;2022-08-16T09:38:07;13.63;;;7.63;;
68108;SDS011;54893;49.864;19.084;2022-08-16T09:43:08;12.73;;;8.30;;
68108;SDS011;54893;49.864;19.084;2022-08-16T09:48:10;13.38;;;8.80;;
68108;SDS011;54893;49.864;19.084;2022-08-16T09:53:14;12.13;;;8.20;;
68108;SDS011;54893;49.864;19.084;2022-08-16T09:58:20;12.25;;;7.88;;
68108;SDS011;54893;49.864;19.084;2022-08-16T10:03:22;13.60;;;9.13;;
68108;SDS011;54893;49.864;19.084;2022-08-16T10:08:23;14.60;;;8.80;;
68108;SDS011;54893;49.864;19.084;2022-08-16T10:13:23;13.13;;;8.20;;
68108;SDS011;54893;49.864;19.084;2022-08-16T10:18:27;11.90;;;8.20;;
68108;SDS011;54893;49.864;19.084;2022-08-16T10:23:29;11.20;;;8.07;;
68108;SDS011;54893;49.864;19.084;2022-08-16T10:28:29;11.97;;;8.50;;
68108;SDS011;54893;49.864;19.084;2022-08-16T10:33:30;12.10;;;8.00;;
68108;SDS011;54893;49.864;19.084;2022-08-16T10:38:33;11.57;;;8.40;;
68108;SDS011;54893;49.864;19.084;2022-08-16T10:43:35;10.48;;;7.47;;
68108;SDS011;54893;49.864;19.084;2022-08-16T10:48:37;12.67;;;8.87;;
68108;SDS011;54893;49.864;19.084;2022-08-16T10:53:39;11.60;;;7.68;;
68108;SDS011;54893;49.864;19.084;2022-08-16T10:58:39;11.70;;;7.47;;
68108;SDS011;54893;49.864;19.084;2022-08-16T11:03:40;12.20;;;8.13;;
68108;SDS011;54893;49.864;19.084;2022-08-16T11:08:40;11.40;;;8.07;;
68108;SDS011;54893;49.864;19.084;2022-08-16T11:13:41;11.13;;;7.70;;
68108;SDS011;54893;49.864;19.084;2022-08-16T11:18:42;13.75;;;9.05;;
68108;SDS011;54893;49.864;19.084;2022-08-16T11:23:43;16.60;;;8.90;;
68108;SDS011;54893;49.864;19.084;2022-08-16T11:28:43;19.23;;;9.40;;
68108;SDS011;54893;49.864;19.084;2022-08-16T11:33:44;12.30;;;8.90;;
68108;SDS011;54893;49.864;19.084;2022-08-16T11:38:44;12.47;;;7.73;;
68108;SDS011;54893;49.864;19.084;2022-08-16T11:43:45;11.40;;;8.57;;
68108;SDS011;54893;49.864;19.084;2022-08-16T11:48:46;13.87;;;8.90;;
68108;SDS011;54893;49.864;19.084;2022-08-16T11:53:47;13.60;;;8.27;;
68108;SDS011;54893;49.864;19.084;2022-08-16T11:58:47;12.97;;;8.40;;
68108;SDS011;54893;49.864;19.084;2022-08-16T12:03:48;16.60;;;9.00;;
68108;SDS011;54893;49.864;19.084;2022-08-16T12:08:48;13.03;;;8.93;;
68108;SDS011;54893;49.864;19.084;2022-08-16T12:13:49;12.95;;;8.63;;
68108;SDS011;54893;49.864;19.084;2022-08-16T12:18:50;15.10;;;8.97;;
68108;SDS011;54893;49.864;19.084;2022-08-16T12:23:50;12.63;;;9.27;;
68108;SDS011;54893;49.864;19.084;2022-08-16T12:28:51;13.73;;;9.70;;
68108;SDS011;54893;49.864;19.084;2022-08-16T12:33:52;13.93;;;10.82;;
68108;SDS011;54893;49.864;19.084;2022-08-16T12:38:52;14.50;;;9.90;;
68108;SDS011;54893;49.864;19.084;2022-08-16T12:43:54;16.00;;;10.50;;
68108;SDS011;54893;49.864;19.084;2022-08-16T12:48:54;14.33;;;10.47;;
68108;SDS011;54893;49.864;19.084;2022-08-16T12:53:58;17.40;;;10.07;;
68108;SDS011;54893;49.864;19.084;2022-08-16T12:59:01;15.70;;;10.70;;
68108;SDS011;54893;49.864;19.084;2022-08-16T13:04:08;13.50;;;9.60;;
68108;SDS011;54893;49.864;19.084;2022-08-16T13:09:09;12.38;;;9.88;;
68108;SDS011;54893;49.864;19.084;2022-08-16T13:14:39;13.83;;;10.13;;
68108;SDS011;54893;49.864;19.084;2022-08-16T13:19:41;12.05;;;8.27;;
68108;SDS011;54893;49.864;19.084;2022-08-16T13:24:42;11.67;;;7.97;;
68108;SDS011;54893;49.864;19.084;2022-08-16T13:29:42;11.60;;;8.10;;
68108;SDS011;54893;49.864;19.084;2022-08-16T13:34:42;8.40;;;6.43;;
68108;SDS011;54893;49.864;19.084;2022-08-16T13:39:43;10.67;;;7.70;;
68108;SDS011;54893;49.864;19.084;2022-08-16T13:44:43;11.43;;;8.50;;
68108;SDS011;54893;49.864;19.084;2022-08-16T13:49:44;15.52;;;9.90;;
68108;SDS011;54893;49.864;19.084;2022-08-16T13:54:47;11.97;;;9.30;;
68108;SDS011;54893;49.864;19.084;2022-08-16T13:59:47;12.00;;;9.05;;
68108;SDS011;54893;49.864;19.084;2022-08-16T14:04:48;10.27;;;8.30;;
68108;SDS011;54893;49.864;19.084;2022-08-16T14:09:48;10.93;;;8.20;;
68108;SDS011;54893;49.864;19.084;2022-08-16T14:14:49;9.57;;;8.00;;
68108;SDS011;54893;49.864;19.084;2022-08-16T14:19:52;11.73;;;7.93;;
68108;SDS011;54893;49.864;19.084;2022-08-16T14:24:54;11.48;;;8.38;;
68108;SDS011;54893;49.864;19.084;2022-08-16T14:29:58;12.43;;;7.87;;
68108;SDS011;54893;49.864;19.084;2022-08-16T14:34:59;10.90;;;8.13;;
68108;SDS011;54893;49.864;19.084;2022-08-16T14:40:16;14.32;;;8.48;;
68108;SDS011;54893;49.864;19.084;2022-08-16T14:45:20;11.77;;;8.10;;
68108;SDS011;54893;49.864;19.084;2022-08-16T14:50:24;14.30;;;9.25;;
68108;SDS011;54893;49.864;19.084;2022-08-16T14:55:26;11.57;;;8.80;;
68108;SDS011;54893;49.864;19.084;2022-08-16T15:00:29;15.07;;;8.60;;
68108;SDS011;54893;49.864;19.084;2022-08-16T15:05:31;14.85;;;8.55;;
68108;SDS011;54893;49.864;19.084;2022-08-16T15:10:32;13.13;;;8.63;;
68108;SDS011;54893;49.864;19.084;2022-08-16T15:15:33;12.93;;;8.67;;
68108;SDS011;54893;49.864;19.084;2022-08-16T15:20:34;10.70;;;6.70;;
68108;SDS011;54893;49.864;19.084;2022-08-16T15:25:36;10.20;;;6.10;;
68108;SDS011;54893;49.864;19.084;2022-08-16T15:30:38;11.98;;;6.68;;
68108;SDS011;54893;49.864;19.084;2022-08-16T15:35:40;10.10;;;6.60;;
68108;SDS011;54893;49.864;19.084;2022-08-16T15:40:42;8.50;;;6.13;;
68108;SDS011;54893;49.864;19.084;2022-08-16T15:45:42;8.67;;;6.70;;
68108;SDS011;54893;49.864;19.084;2022-08-16T15:51:03;10.27;;;6.40;;
68108;SDS011;54893;49.864;19.084;2022-08-16T15:56:07;11.77;;;7.43;;
68108;SDS011;54893;49.864;19.084;2022-08-16T16:01:07;10.17;;;7.53;;
68108;SDS011;54893;49.864;19.084;2022-08-16T16:06:08;11.90;;;7.60;;
68108;SDS011;54893;49.864;19.084;2022-08-16T16:11:08;14.90;;;7.37;;
68108;SDS011;54893;49.864;19.084;2022-08-16T16:16:09;9.90;;;6.90;;
68108;SDS011;54893;49.864;19.084;2022-08-16T16:21:10;9.73;;;6.65;;
68108;SDS011;54893;49.864;19.084;2022-08-16T16:26:12;12.37;;;7.27;;
68108;SDS011;54893;49.864;19.084;2022-08-16T16:31:15;9.57;;;6.55;;
68108;SDS011;54893;49.864;19.084;2022-08-16T16:36:18;12.17;;;7.27;;
68108;SDS011;54893;49.864;19.084;2022-08-16T16:41:20;15.10;;;7.05;;
68108;SDS011;54893;49.864;19.084;2022-08-16T16:46:26;9.60;;;6.47;;
68108;SDS011;54893;49.864;19.084;2022-08-16T16:51:32;11.37;;;7.30;;
68108;SDS011;54893;49.864;19.084;2022-08-16T16:56:33;12.35;;;8.10;;
68108;SDS011;54893;49.864;19.084;2022-08-16T17:01:41;12.07;;;8.10;;
68108;SDS011;54893;49.864;19.084;2022-08-16T17:06:44;15.75;;;9.52;;
68108;SDS011;54893;49.864;19.084;2022-08-16T17:11:44;18.50;;;10.37;;
68108;SDS011;54893;49.864;19.084;2022-08-16T17:16:45;15.93;;;9.73;;
68108;SDS011;54893;49.864;19.084;2022-08-16T17:21:45;18.07;;;10.13;;
68108;SDS011;54893;49.864;19.084;2022-08-16T17:26:47;17.90;;;10.02;;
68108;SDS011;54893;49.864;19.084;2022-08-16T17:31:48;16.50;;;10.30;;
68108;SDS011;54893;49.864;19.084;2022-08-16T17:36:48;19.13;;;10.00;;
68108;SDS011;54893;49.864;19.084;2022-08-16T17:41:48;17.70;;;10.43;;
68108;SDS011;54893;49.864;19.084;2022-08-16T17:46:49;17.85;;;11.00;;
68108;SDS011;54893;49.864;19.084;2022-08-16T17:51:50;19.87;;;11.47;;
68108;SDS011;54893;49.864;19.084;2022-08-16T17:56:50;20.27;;;11.87;;
68108;SDS011;54893;49.864;19.084;2022-08-16T18:01:52;19.88;;;12.65;;
68108;SDS011;54893;49.864;19.084;2022-08-16T18:06:53;20.37;;;12.17;;
68108;SDS011;54893;49.864;19.084;2022-08-16T18:11:54;20.67;;;11.93;;
68108;SDS011;54893;49.864;19.084;2022-08-16T18:16:55;19.93;;;11.80;;
68108;SDS011;54893;49.864;19.084;2022-08-16T18:21:55;19.77;;;11.80;;
68108;SDS011;54893;49.864;19.084;2022-08-16T18:27:15;23.60;;;11.33;;
68108;SDS011;54893;49.864;19.084;2022-08-16T18:32:16;20.35;;;11.73;;
68108;SDS011;54893;49.864;19.084;2022-08-16T18:37:17;20.98;;;12.27;;
68108;SDS011;54893;49.864;19.084;2022-08-16T18:42:17;22.90;;;13.60;;
68108;SDS011;54893;49.864;19.084;2022-08-16T18:47:18;25.77;;;13.68;;
68108;SDS011;54893;49.864;19.084;2022-08-16T18:52:18;21.07;;;13.00;;
68108;SDS011;54893;49.864;19.084;2022-08-16T18:57:18;21.17;;;13.20;;
68108;SDS011;54893;49.864;19.084;2022-08-16T19:02:22;19.92;;;12.73;;
68108;SDS011;54893;49.864;19.084;2022-08-16T19:07:24;20.90;;;13.02;;
68108;SDS011;54893;49.864;19.084;2022-08-16T19:12:24;22.03;;;13.00;;
68108;SDS011;54893;49.864;19.084;2022-08-16T19:17:25;23.93;;;14.30;;
68108;SDS011;54893;49.864;19.084;2022-08-16T19:22:27;24.02;;;14.35;;
68108;SDS011;54893;49.864;19.084;2022-08-16T19:27:30;33.80;;;18.52;;
68108;SDS011;54893;49.864;19.084;2022-08-16T19:32:31;31.47;;;17.80;;
68108;SDS011;54893;49.864;19.084;2022-08-16T19:37:32;25.60;;;15.27;;
68108;SDS011;54893;49.864;19.084;2022-08-16T19:42:33;21.87;;;13.93;;
68108;SDS011;54893;49.864;19.084;2022-08-16T19:47:34;24.48;;;14.77;;
68108;SDS011;54893;49.864;19.084;2022-08-16T19:52:35;26.27;;;15.00;;
68108;SDS011;54893;49.864;19.084;2022-08-16T19:57:37;23.87;;;14.70;;
68108;SDS011;54893;49.864;19.084;2022-08-16T20:02:41;25.95;;;14.98;;
68108;SDS011;54893;49.864;19.084;2022-08-16T20:07:49;28.23;;;14.82;;
68108;SDS011;54893;49.864;19.084;2022-08-16T20:12:51;26.27;;;15.73;;
68108;SDS011;54893;49.864;19.084;2022-08-16T20:17:52;26.20;;;15.07;;
68108;SDS011;54893;49.864;19.084;2022-08-16T20:22:53;30.87;;;16.17;;
68108;SDS011;54893;49.864;19.084;2022-08-16T20:27:54;26.83;;;14.95;;
68108;SDS011;54893;49.864;19.084;2022-08-16T20:32:56;28.40;;;15.00;;
68108;SDS011;54893;49.864;19.084;2022-08-16T20:37:56;30.37;;;16.00;;
68108;SDS011;54893;49.864;19.084;2022-08-16T20:43:06;29.05;;;15.55;;
68108;SDS011;54893;49.864;19.084;2022-08-16T20:48:08;26.85;;;16.10;;
68108;SDS011;54893;49.864;19.084;2022-08-16T20:53:09;23.73;;;15.43;;
68108;SDS011;54893;49.864;19.084;2022-08-16T20:58:10;26.20;;;15.02;;
68108;SDS011;54893;49.864;19.084;2022-08-16T21:03:11;25.27;;;14.30;;
68108;SDS011;54893;49.864;19.084;2022-08-16T21:08:12;24.15;;;14.10;;
68108;SDS011;54893;49.864;19.084;2022-08-16T21:13:13;21.98;;;13.35;;
68108;SDS011;54893;49.864;19.084;2022-08-16T21:18:13;21.07;;;12.57;;
68108;SDS011;54893;49.864;19.084;2022-08-16T21:23:14;21.30;;;12.40;;
68108;SDS011;54893;49.864;19.084;2022-08-16T21:28:14;21.70;;;12.97;;
68108;SDS011;54893;49.864;19.084;2022-08-16T21:33:16;19.00;;;12.25;;
68108;SDS011;54893;49.864;19.084;2022-08-16T21:38:18;22.73;;;12.60;;
68108;SDS011;54893;49.864;19.084;2022-08-16T21:43:18;20.43;;;12.60;;
68108;SDS011;54893;49.864;19.084;2022-08-16T21:48:22;20.10;;;12.02;;
68108;SDS011;54893;49.864;19.084;2022-08-16T21:53:23;20.90;;;11.70;;
68108;SDS011;54893;49.864;19.084;2022-08-16T21:58:28;20.95;;;12.57;;
68108;SDS011;54893;49.864;19.084;2022-08-16T22:03:29;20.00;;;12.30;;
68108;SDS011;54893;49.864;19.084;2022-08-16T22:08:31;21.30;;;13.53;;
68108;SDS011;54893;49.864;19.084;2022-08-16T22:13:32;23.90;;;14.07;;
68108;SDS011;54893;49.864;19.084;2022-08-16T22:18:32;20.83;;;12.83;;
68108;SDS011;54893;49.864;19.084;2022-08-16T22:23:33;26.93;;;14.53;;
68108;SDS011;54893;49.864;19.084;2022-08-16T22:28:35;28.98;;;16.42;;
68108;SDS011;54893;49.864;19.084;2022-08-16T22:33:35;31.70;;;18.00;;
68108;SDS011;54893;49.864;19.084;2022-08-16T22:38:36;30.15;;;17.58;;
68108;SDS011;54893;49.864;19.084;2022-08-16T22:43:37;30.17;;;16.40;;
68108;SDS011;54893;49.864;19.084;2022-08-16T22:48:38;28.30;;;15.75;;
68108;SDS011;54893;49.864;19.084;2022-08-16T22:53:38;32.00;;;17.60;;
68108;SDS011;54893;49.864;19.084;2022-08-16T22:58:39;31.63;;;17.90;;
68108;SDS011;54893;49.864;19.084;2022-08-16T23:03:39;32.97;;;18.30;;
68108;SDS011;54893;49.864;19.084;2022-08-16T23:08:40;29.93;;;17.70;;
68108;SDS011;54893;49.864;19.084;2022-08-16T23:13:42;25.48;;;15.95;;
68108;SDS011;54893;49.864;19.084;2022-08-16T23:18:42;27.43;;;16.27;;
68108;SDS011;54893;49.864;19.084;2022-08-16T23:23:42;24.67;;;16.03;;
68108;SDS011;54893;49.864;19.084;2022-08-16T23:28:45;25.38;;;15.80;;
68108;SDS011;54893;49.864;19.084;2022-08-16T23:33:45;29.53;;;15.63;;
68108;SDS011;54893;49.864;19.084;2022-08-16T23:38:46;25.57;;;15.27;;
68108;SDS011;54893;49.864;19.084;2022-08-16T23:43:46;26.20;;;15.20;;
68108;SDS011;54893;49.864;19.084;2022-08-16T23:48:47;30.20;;;15.77;;
68108;SDS011;54893;49.864;19.084;2022-08-16T23:53:47;28.87;;;15.40;;
68108;SDS011;54893;49.864;19.084;2022-08-16T23:58:49;25.53;;;15.40;;
